KHVE Airport (Hanksville) Information

FAA: HVE - ICAO: KHVE

KHVE Airport Location

State Utah
County Wayne
City Hanksville
KHVE Airport is 3 miles north of Hanksville, UT.
Latitude 38-25-09.9000N
Longitude 110-42-10.5000W
Elevation 4,453ft

KHVE Airport METARs

METAR KHVE 280215Z AUTO 32012G18KT 10SM CLR 12/M01 A3028 RMK AO2
Altimeter 30.28"
Temperature 12.0°C (53.6°F)
Wind 320° at 12KT with gusts to 18KT
Clouds Skies are clear.
Visibility 10.0mi
Time observed: 2021-10-28T02:15:00Z

KHVE Airport Details

Status Operational
Activation March 1947
Ownership Public
Usage Public
Chart DENVER
ATC on-site No
Beacon schedule sunset-sunrise
Beacon color clear green

KHVE Airport Contacts

Owner UTAH DIVISION OF AERONAUTICS
Owner address 135 N 2400 W, SALT LAKE CITY, UT 84116
Owner phone 301-575-7915
Manager GILBERT DEVELOPMENT CORP.
Manager address 6249 W. GILBERT INDUSTRIAL COURT, HURRICANE, UT 84737
Manager phone 435-627-1907

KHVE Airport (Hanksville) Radio Frequencies

KHVE (Airport) Radio Frequencies

UNICOM 122.8
Common traffic advisory frequency (CTAF) 122.8